createdAt,value
2018-02-24T00:00:35.339Z,16.39
2018-02-24T00:01:35.349Z,16.36
2018-02-24T00:02:35.337Z,16.39
2018-02-24T00:03:35.335Z,16.36
2018-02-24T00:04:35.322Z,16.37
2018-02-24T00:05:35.322Z,16.35
2018-02-24T00:06:35.329Z,16.35
2018-02-24T00:07:35.364Z,16.36
2018-02-24T00:08:35.333Z,16.35
2018-02-24T00:09:35.341Z,16.32
2018-02-24T00:10:35.324Z,16.33
2018-02-24T00:11:35.350Z,16.35
2018-02-24T00:12:35.334Z,16.33
2018-02-24T00:13:35.334Z,16.32
2018-02-24T00:14:35.895Z,16.32
2018-02-24T00:15:35.341Z,16.31
2018-02-24T00:16:35.319Z,16.32
2018-02-24T00:17:35.348Z,16.32
2018-02-24T00:18:35.332Z,16.29
2018-02-24T00:19:35.313Z,16.29
2018-02-24T00:20:35.334Z,16.28
2018-02-24T00:21:35.339Z,16.26
2018-02-24T00:22:35.320Z,16.29
2018-02-24T00:23:35.334Z,16.26
2018-02-24T00:24:35.335Z,16.25
2018-02-24T00:25:35.316Z,16.25
2018-02-24T00:26:35.601Z,16.28
2018-02-24T00:27:35.354Z,16.26
2018-02-24T00:28:35.316Z,16.25
2018-02-24T00:29:35.309Z,16.22
2018-02-24T00:30:35.366Z,16.25
2018-02-24T00:31:35.338Z,16.24
2018-02-24T00:32:35.327Z,16.24
2018-02-24T00:33:35.312Z,16.24
2018-02-24T00:34:35.334Z,16.21
2018-02-24T00:35:35.320Z,16.21
2018-02-24T00:36:35.320Z,16.21
2018-02-24T00:37:35.320Z,16.21
2018-02-24T00:38:35.315Z,16.19
2018-02-24T00:39:35.329Z,16.19
2018-02-24T00:40:35.316Z,16.21
2018-02-24T00:41:35.337Z,16.16
2018-02-24T00:42:35.313Z,16.18
2018-02-24T00:43:35.326Z,16.19
2018-02-24T00:44:35.329Z,16.19
2018-02-24T00:45:35.311Z,16.18
2018-02-24T00:46:35.316Z,16.19
2018-02-24T00:47:35.304Z,16.16
2018-02-24T00:48:35.317Z,16.15
2018-02-24T00:49:35.322Z,16.16
2018-02-24T00:50:35.298Z,16.18
2018-02-24T00:51:35.313Z,16.15
2018-02-24T00:52:35.318Z,16.14
2018-02-24T00:53:35.311Z,16.12
2018-02-24T00:54:35.682Z,16.14
2018-02-24T00:55:35.341Z,16.15
2018-02-24T00:56:35.323Z,16.14
2018-02-24T00:57:35.413Z,16.11
2018-02-24T00:58:35.313Z,16.14
2018-02-24T00:59:35.337Z,16.12
2018-02-24T01:00:35.309Z,16.12
2018-02-24T01:01:35.336Z,16.11
2018-02-24T01:02:35.312Z,16.09
2018-02-24T01:03:35.326Z,16.09
2018-02-24T01:04:35.351Z,16.09
2018-02-24T01:05:35.869Z,16.09
2018-02-24T01:06:35.311Z,16.09
2018-02-24T01:07:35.300Z,16.09
2018-02-24T01:08:35.323Z,16.11
2018-02-24T01:09:35.327Z,16.09
2018-02-24T01:10:35.317Z,16.09
2018-02-24T01:11:35.320Z,16.11
2018-02-24T01:12:35.306Z,16.08
2018-02-24T01:13:35.408Z,16.07
2018-02-24T01:14:35.370Z,16.07
2018-02-24T01:15:35.307Z,16.08
2018-02-24T01:16:35.313Z,16.07
2018-02-24T01:17:35.361Z,16.05
2018-02-24T01:18:35.311Z,16.07
2018-02-24T01:19:35.388Z,16.07
2018-02-24T01:20:35.311Z,16.04
2018-02-24T01:21:35.297Z,16.04
2018-02-24T01:22:35.310Z,16.03
2018-02-24T01:23:35.317Z,16.04
2018-02-24T01:24:35.319Z,16.04
2018-02-24T01:25:35.296Z,16
2018-02-24T01:26:35.326Z,16.03
2018-02-24T01:27:35.302Z,16.04
2018-02-24T01:28:35.307Z,16.03
2018-02-24T01:29:35.304Z,16.03
2018-02-24T01:30:35.303Z,16.01
2018-02-24T01:31:35.350Z,16.03
2018-02-24T01:32:35.288Z,16.01
2018-02-24T01:33:35.299Z,16
2018-02-24T01:34:35.302Z,16.01
2018-02-24T01:35:35.311Z,16.01
2018-02-24T01:36:35.286Z,16
2018-02-24T01:37:35.357Z,16.01
2018-02-24T01:38:35.314Z,16
2018-02-24T01:39:35.287Z,16.01
2018-02-24T01:40:35.313Z,15.98
2018-02-24T01:41:35.293Z,15.97
2018-02-24T01:42:35.307Z,15.98
2018-02-24T01:43:35.304Z,15.97
2018-02-24T01:44:35.293Z,15.97
2018-02-24T01:45:35.315Z,15.96
2018-02-24T01:46:35.310Z,15.96
2018-02-24T01:47:35.293Z,15.97
2018-02-24T01:48:35.283Z,15.96
2018-02-24T01:49:35.298Z,15.96
2018-02-24T01:50:35.286Z,15.97
2018-02-24T01:51:35.326Z,15.96
2018-02-24T01:52:35.289Z,15.94
2018-02-24T01:53:35.297Z,15.94
2018-02-24T01:54:35.420Z,15.97
2018-02-24T01:55:35.375Z,15.94
2018-02-24T01:56:35.564Z,15.94
2018-02-24T01:57:35.293Z,15.94
2018-02-24T01:58:35.288Z,15.94
2018-02-24T01:59:35.286Z,15.91
2018-02-24T02:00:35.297Z,15.91
2018-02-24T02:01:35.319Z,15.93
2018-02-24T02:02:35.294Z,15.9
2018-02-24T02:03:35.309Z,15.91
2018-02-24T02:04:35.355Z,15.91
2018-02-24T02:05:35.288Z,15.9
2018-02-24T02:06:35.302Z,15.87
2018-02-24T02:07:35.278Z,15.88
2018-02-24T02:08:35.288Z,15.9
2018-02-24T02:09:35.269Z,15.88
2018-02-24T02:10:35.304Z,15.9
2018-02-24T02:11:35.290Z,15.87
2018-02-24T02:12:35.304Z,15.86
2018-02-24T02:13:35.310Z,15.87
2018-02-24T02:14:35.280Z,15.87
2018-02-24T02:15:35.283Z,15.88
2018-02-24T02:16:35.275Z,15.82
2018-02-24T02:17:35.284Z,15.84
2018-02-24T02:18:35.300Z,15.86
2018-02-24T02:19:35.279Z,15.86
2018-02-24T02:20:35.278Z,15.86
2018-02-24T02:21:35.287Z,15.84
2018-02-24T02:22:35.569Z,15.84
2018-02-24T02:23:35.295Z,15.82
2018-02-24T02:24:35.336Z,15.82
2018-02-24T02:25:35.275Z,15.82
2018-02-24T02:26:35.298Z,15.81
2018-02-24T02:27:35.296Z,15.84
2018-02-24T02:28:35.291Z,15.84
2018-02-24T02:29:35.296Z,15.84
2018-02-24T02:30:35.322Z,15.81
2018-02-24T02:31:35.297Z,15.82
2018-02-24T02:32:35.347Z,15.8
2018-02-24T02:33:35.303Z,15.81
2018-02-24T02:34:35.305Z,15.81
2018-02-24T02:35:35.278Z,15.81
2018-02-24T02:36:35.290Z,15.77
2018-02-24T02:37:35.377Z,15.8
2018-02-24T02:38:35.296Z,15.78
2018-02-24T02:39:35.284Z,15.81
2018-02-24T02:40:35.277Z,15.8
2018-02-24T02:41:35.298Z,15.78
2018-02-24T02:42:35.282Z,15.77
2018-02-24T02:43:35.316Z,15.77
2018-02-24T02:44:35.310Z,15.78
2018-02-24T02:45:35.287Z,15.76
2018-02-24T02:46:35.274Z,15.74
2018-02-24T02:47:35.307Z,15.8
2018-02-24T02:48:35.574Z,15.76
2018-02-24T02:49:35.284Z,15.77
2018-02-24T02:50:35.284Z,15.76
2018-02-24T02:51:35.286Z,15.76
2018-02-24T02:52:35.300Z,15.76
2018-02-24T02:53:35.357Z,15.76
2018-02-24T02:54:35.282Z,15.74
2018-02-24T02:55:35.293Z,15.73
2018-02-24T02:56:35.281Z,15.74
2018-02-24T02:57:35.281Z,15.74
2018-02-24T02:58:35.316Z,15.73
2018-02-24T02:59:35.283Z,15.74
2018-02-24T03:00:35.288Z,15.71
2018-02-24T03:01:35.271Z,15.74
2018-02-24T03:02:35.254Z,15.74
2018-02-24T03:03:35.379Z,15.73
2018-02-24T03:04:35.278Z,15.71
2018-02-24T03:05:35.268Z,15.73
2018-02-24T03:06:35.296Z,15.7
2018-02-24T03:07:35.275Z,15.71
2018-02-24T03:08:35.301Z,15.71
2018-02-24T03:09:35.252Z,15.71
2018-02-24T03:10:35.265Z,15.69
2018-02-24T03:11:35.284Z,15.7
2018-02-24T03:12:35.276Z,15.71
2018-02-24T03:13:35.300Z,15.71
2018-02-24T03:14:35.272Z,15.7
2018-02-24T03:15:35.302Z,15.71
2018-02-24T03:16:35.273Z,15.7
2018-02-24T03:17:35.294Z,15.69
2018-02-24T03:18:35.257Z,15.7
2018-02-24T03:19:35.478Z,15.67
2018-02-24T03:20:35.262Z,15.67
2018-02-24T03:21:35.268Z,15.69
2018-02-24T03:22:35.253Z,15.67
2018-02-24T03:23:35.253Z,15.67
2018-02-24T03:24:35.264Z,15.66
2018-02-24T03:25:35.256Z,15.67
2018-02-24T03:26:35.258Z,15.66
2018-02-24T03:27:35.257Z,15.66
2018-02-24T03:28:35.250Z,15.67
2018-02-24T03:29:35.292Z,15.67
2018-02-24T03:30:35.291Z,15.63
2018-02-24T03:31:35.675Z,15.64
2018-02-24T03:32:35.272Z,15.63
2018-02-24T03:33:35.258Z,15.63
2018-02-24T03:34:35.280Z,15.64
2018-02-24T03:35:35.275Z,15.64
2018-02-24T03:36:35.254Z,15.64
2018-02-24T03:37:35.239Z,15.64
2018-02-24T03:38:35.244Z,15.62
2018-02-24T03:39:35.287Z,15.63
2018-02-24T03:40:35.279Z,15.6
2018-02-24T03:41:35.256Z,15.63
2018-02-24T03:42:35.268Z,15.62
2018-02-24T03:43:35.254Z,15.62
2018-02-24T03:44:35.292Z,15.6
2018-02-24T03:45:35.255Z,15.62
2018-02-24T03:46:35.528Z,15.6
2018-02-24T03:47:35.258Z,15.59
2018-02-24T03:48:35.254Z,15.62
2018-02-24T03:49:35.254Z,15.59
2018-02-24T03:50:35.255Z,15.6
2018-02-24T03:51:35.277Z,15.59
2018-02-24T03:52:35.233Z,15.59
2018-02-24T03:53:35.248Z,15.6
2018-02-24T03:54:35.252Z,15.59
2018-02-24T03:55:35.331Z,15.57
2018-02-24T03:56:35.369Z,15.59
2018-02-24T03:57:35.257Z,15.57
2018-02-24T03:58:35.251Z,15.57
2018-02-24T03:59:35.257Z,15.59
2018-02-24T04:00:35.493Z,15.6
2018-02-24T04:01:35.240Z,15.57
2018-02-24T04:02:35.244Z,15.59
2018-02-24T04:03:35.263Z,15.57
2018-02-24T04:04:35.253Z,15.56
2018-02-24T04:05:35.279Z,15.57
2018-02-24T04:06:35.343Z,15.57
2018-02-24T04:07:35.243Z,15.54
2018-02-24T04:08:35.249Z,15.53
2018-02-24T04:09:35.225Z,15.53
2018-02-24T04:10:35.287Z,15.54
2018-02-24T04:11:35.248Z,15.56
2018-02-24T04:12:35.232Z,15.56
2018-02-24T04:13:35.242Z,15.53
2018-02-24T04:14:35.337Z,15.54
2018-02-24T04:15:35.280Z,15.56
2018-02-24T04:16:35.517Z,15.56
2018-02-24T04:17:35.253Z,15.53
2018-02-24T04:18:35.217Z,15.54
2018-02-24T04:19:35.263Z,15.53
2018-02-24T04:20:35.272Z,15.53
2018-02-24T04:21:35.300Z,15.53
2018-02-24T04:22:35.344Z,15.49
2018-02-24T04:23:35.269Z,15.5
2018-02-24T04:24:35.235Z,15.5
2018-02-24T04:25:35.286Z,15.5
2018-02-24T04:26:35.217Z,15.52
2018-02-24T04:27:35.237Z,15.49
2018-02-24T04:28:35.270Z,15.52
2018-02-24T04:29:35.250Z,15.49
2018-02-24T04:30:35.275Z,15.49
2018-02-24T04:31:35.238Z,15.5
2018-02-24T04:32:35.238Z,15.49
2018-02-24T04:33:35.242Z,15.49
2018-02-24T04:34:35.250Z,15.49
2018-02-24T04:35:35.265Z,15.49
2018-02-24T04:36:35.276Z,15.49
2018-02-24T04:37:35.278Z,15.5
2018-02-24T04:38:35.236Z,15.49
2018-02-24T04:39:35.230Z,15.49
2018-02-24T04:40:35.303Z,15.49
2018-02-24T04:41:35.227Z,15.47
2018-02-24T04:42:35.245Z,15.47
2018-02-24T04:43:35.254Z,15.46
2018-02-24T04:44:35.269Z,15.46
2018-02-24T04:45:35.211Z,15.45
2018-02-24T04:46:35.237Z,15.47
2018-02-24T04:47:35.224Z,15.46
2018-02-24T04:48:35.241Z,15.45
2018-02-24T04:49:35.227Z,15.46
2018-02-24T04:50:35.244Z,15.45
2018-02-24T04:51:35.235Z,15.47
2018-02-24T04:52:35.223Z,15.47
2018-02-24T04:53:35.268Z,15.5
2018-02-24T04:54:35.258Z,15.5
2018-02-24T04:55:35.244Z,15.5
2018-02-24T04:56:35.222Z,15.52
2018-02-24T04:57:35.264Z,15.53
2018-02-24T04:58:35.266Z,15.53
2018-02-24T04:59:35.229Z,15.52
2018-02-24T05:00:35.214Z,15.52
2018-02-24T05:01:35.242Z,15.5
2018-02-24T05:02:35.255Z,15.5
2018-02-24T05:03:35.250Z,15.53
2018-02-24T05:04:35.203Z,15.53
2018-02-24T05:05:35.230Z,15.53
2018-02-24T05:06:35.234Z,15.52
2018-02-24T05:07:35.229Z,15.54
2018-02-24T05:08:35.227Z,15.54
2018-02-24T05:09:35.230Z,15.53
2018-02-24T05:10:35.267Z,15.54
2018-02-24T05:11:35.221Z,15.56
2018-02-24T05:12:35.214Z,15.54
2018-02-24T05:13:35.234Z,15.54
2018-02-24T05:14:35.236Z,15.54
2018-02-24T05:15:35.232Z,15.57
2018-02-24T05:16:35.223Z,15.59
2018-02-24T05:17:35.227Z,15.57
2018-02-24T05:18:35.215Z,15.59
2018-02-24T05:19:35.215Z,15.59
2018-02-24T05:20:35.266Z,15.6
2018-02-24T05:21:35.228Z,15.62
2018-02-24T05:22:35.212Z,15.63
2018-02-24T05:23:35.229Z,15.66
2018-02-24T05:24:35.216Z,15.64
2018-02-24T05:25:35.230Z,15.66
2018-02-24T05:26:35.210Z,15.69
2018-02-24T05:27:35.547Z,15.7
2018-02-24T05:28:35.236Z,15.71
2018-02-24T05:29:35.186Z,15.73
2018-02-24T05:30:35.216Z,15.73
2018-02-24T05:31:35.216Z,15.74
2018-02-24T05:32:35.253Z,15.77
2018-02-24T05:33:35.205Z,15.78
2018-02-24T05:34:35.202Z,15.81
2018-02-24T05:35:35.198Z,15.81
2018-02-24T05:36:35.222Z,15.84
2018-02-24T05:37:35.204Z,15.84
2018-02-24T05:38:35.213Z,15.88
2018-02-24T05:39:35.202Z,15.9
2018-02-24T05:40:35.207Z,15.91
2018-02-24T05:41:35.212Z,15.96
2018-02-24T05:42:35.216Z,15.96
2018-02-24T05:43:35.476Z,16
2018-02-24T05:44:35.227Z,16.01
2018-02-24T05:45:35.231Z,16
2018-02-24T05:46:35.208Z,16.04
2018-02-24T05:47:35.204Z,16.05
2018-02-24T05:48:35.235Z,16.05
2018-02-24T05:49:35.225Z,16.11
2018-02-24T05:50:35.208Z,16.12
2018-02-24T05:51:35.271Z,16.14
2018-02-24T05:52:35.203Z,16.15
2018-02-24T05:53:35.182Z,16.18
2018-02-24T05:54:35.224Z,16.19
2018-02-24T05:55:35.226Z,16.22
2018-02-24T05:56:35.291Z,16.22
2018-02-24T05:57:35.662Z,16.25
2018-02-24T05:58:35.236Z,16.26
2018-02-24T05:59:35.236Z,16.28
2018-02-24T06:00:35.213Z,16.29
2018-02-24T06:01:35.214Z,16.33
2018-02-24T06:02:35.192Z,16.33
2018-02-24T06:03:35.216Z,16.35
2018-02-24T06:04:35.471Z,16.36
2018-02-24T06:05:35.205Z,16.36
2018-02-24T06:06:35.206Z,16.39
2018-02-24T06:07:35.604Z,16.4
2018-02-24T06:08:35.196Z,16.39
2018-02-24T06:09:35.239Z,16.43
2018-02-24T06:10:35.229Z,16.44
2018-02-24T06:11:35.189Z,16.46
2018-02-24T06:12:35.203Z,16.49
2018-02-24T06:13:35.204Z,16.47
2018-02-24T06:14:35.218Z,16.49
2018-02-24T06:15:35.191Z,16.5
2018-02-24T06:16:35.186Z,16.52
2018-02-24T06:17:35.186Z,16.52
2018-02-24T06:18:35.213Z,16.52
2018-02-24T06:19:35.215Z,16.56
2018-02-24T06:20:35.200Z,16.58
2018-02-24T06:21:35.198Z,16.59
2018-02-24T06:22:35.201Z,16.59
2018-02-24T06:23:35.185Z,16.6
2018-02-24T06:24:35.226Z,16.62
2018-02-24T06:25:35.218Z,16.63
2018-02-24T06:26:35.206Z,16.64
2018-02-24T06:27:35.168Z,16.67
2018-02-24T06:28:35.184Z,16.67
2018-02-24T06:29:35.209Z,16.69
2018-02-24T06:30:35.184Z,16.69
2018-02-24T06:31:35.198Z,16.67
2018-02-24T06:32:35.213Z,16.7
2018-02-24T06:33:35.209Z,16.69
2018-02-24T06:34:35.463Z,16.71
2018-02-24T06:35:35.198Z,16.71
2018-02-24T06:36:35.182Z,16.74
2018-02-24T06:37:35.194Z,16.74
2018-02-24T06:38:35.177Z,16.76
2018-02-24T06:39:35.575Z,16.77
2018-02-24T06:40:35.234Z,16.77
2018-02-24T06:41:35.190Z,16.76
2018-02-24T06:42:35.199Z,16.84
2018-02-24T06:43:35.185Z,16.87
2018-02-24T06:44:35.223Z,16.86
2018-02-24T06:45:35.228Z,16.86
2018-02-24T06:46:35.171Z,16.87
2018-02-24T06:47:35.181Z,16.88
2018-02-24T06:48:35.187Z,16.88
2018-02-24T06:49:35.219Z,16.91
2018-02-24T06:50:35.179Z,16.9
2018-02-24T06:51:35.185Z,16.92
2018-02-24T06:52:35.047Z,16.95
2018-02-24T06:53:35.208Z,16.95
2018-02-24T06:54:35.211Z,16.95
2018-02-24T06:55:35.186Z,16.99
2018-02-24T06:56:35.179Z,16.99
2018-02-24T06:57:35.192Z,16.99
2018-02-24T06:58:35.176Z,17.01
2018-02-24T06:59:35.477Z,17.04
2018-02-24T07:00:35.177Z,17.04
2018-02-24T07:01:35.203Z,17.05
2018-02-24T07:02:35.185Z,17.06
2018-02-24T07:03:35.195Z,17.09
2018-02-24T07:04:35.213Z,17.09
2018-02-24T07:05:35.195Z,17.15
2018-02-24T07:06:35.174Z,17.14
2018-02-24T07:07:35.175Z,17.14
2018-02-24T07:08:35.167Z,17.09
2018-02-24T07:09:35.202Z,17.14
2018-02-24T07:10:35.194Z,17.15
2018-02-24T07:11:35.163Z,17.14
2018-02-24T07:12:35.166Z,17.12
2018-02-24T07:13:35.175Z,17.12
2018-02-24T07:14:35.259Z,17.14
2018-02-24T07:15:35.187Z,17.15
2018-02-24T07:16:35.173Z,17.15
2018-02-24T07:17:35.226Z,17.16
2018-02-24T07:18:35.162Z,17.16
2018-02-24T07:19:35.445Z,17.15
2018-02-24T07:20:35.213Z,17.16
2018-02-24T07:21:35.180Z,17.16
2018-02-24T07:22:35.177Z,17.18
2018-02-24T07:23:35.266Z,17.18
2018-02-24T07:24:35.196Z,17.18
2018-02-24T07:25:35.192Z,17.19
2018-02-24T07:26:35.172Z,17.21
2018-02-24T07:27:35.169Z,17.19
2018-02-24T07:28:35.174Z,17.18
2018-02-24T07:29:35.199Z,17.21
2018-02-24T07:30:35.166Z,17.19
2018-02-24T07:31:35.280Z,17.22
2018-02-24T07:32:35.167Z,17.22
2018-02-24T07:33:35.181Z,17.22
2018-02-24T07:34:35.204Z,17.23
2018-02-24T07:35:35.181Z,17.25
2018-02-24T07:36:35.176Z,17.25
2018-02-24T07:37:35.173Z,17.26
2018-02-24T07:38:35.437Z,17.25
2018-02-24T07:39:35.166Z,17.28
2018-02-24T07:40:35.165Z,17.26
2018-02-24T07:41:35.180Z,17.28
2018-02-24T07:42:35.203Z,17.26
2018-02-24T07:43:35.200Z,17.28
2018-02-24T07:44:35.178Z,17.28
2018-02-24T07:45:35.157Z,17.29
2018-02-24T07:46:35.192Z,17.28
2018-02-24T07:47:35.164Z,17.32
2018-02-24T07:48:35.182Z,17.31
2018-02-24T07:49:35.244Z,17.31
2018-02-24T07:50:35.438Z,17.31
2018-02-24T07:51:35.163Z,17.33
2018-02-24T07:52:35.162Z,17.33
2018-02-24T07:53:35.195Z,17.33
2018-02-24T07:54:35.201Z,17.32
2018-02-24T07:55:35.192Z,17.33
2018-02-24T07:56:35.180Z,17.35
2018-02-24T07:57:35.274Z,17.33
2018-02-24T07:58:35.171Z,17.36
2018-02-24T07:59:35.162Z,17.35
2018-02-24T08:00:35.159Z,17.36
2018-02-24T08:01:35.176Z,17.36
2018-02-24T08:02:35.155Z,17.36
2018-02-24T08:03:35.164Z,17.36
2018-02-24T08:04:35.160Z,17.39
2018-02-24T08:05:35.179Z,17.38
2018-02-24T08:06:35.198Z,17.39
2018-02-24T08:07:35.171Z,17.39
2018-02-24T08:08:35.165Z,17.4
2018-02-24T08:09:35.148Z,17.39
2018-02-24T08:10:35.448Z,17.42
2018-02-24T08:11:35.177Z,17.42
2018-02-24T08:12:35.155Z,17.42
2018-02-24T08:13:35.163Z,17.46
2018-02-24T08:14:35.161Z,17.5
2018-02-24T08:15:35.170Z,17.49
2018-02-24T08:16:35.152Z,17.49
2018-02-24T08:17:35.535Z,17.5
2018-02-24T08:18:35.157Z,17.52
2018-02-24T08:19:35.150Z,17.54
2018-02-24T08:20:35.138Z,17.56
2018-02-24T08:21:35.165Z,17.59
2018-02-24T08:22:35.148Z,17.59
2018-02-24T08:23:35.141Z,17.56
2018-02-24T08:24:35.143Z,17.6
2018-02-24T08:25:35.430Z,17.59
2018-02-24T08:26:35.171Z,17.61
2018-02-24T08:27:35.163Z,17.6
2018-02-24T08:28:35.141Z,17.63
2018-02-24T08:29:35.143Z,17.63
2018-02-24T08:30:35.179Z,17.63
2018-02-24T08:31:35.189Z,17.66
2018-02-24T08:32:35.183Z,17.67
2018-02-24T08:33:35.168Z,17.67
2018-02-24T08:34:35.154Z,17.67
2018-02-24T08:35:35.144Z,17.66
2018-02-24T08:36:35.160Z,17.68
2018-02-24T08:37:35.310Z,17.68
2018-02-24T08:38:35.298Z,17.71
2018-02-24T08:39:35.282Z,17.71
2018-02-24T08:40:35.228Z,17.7
2018-02-24T08:41:35.171Z,17.73
2018-02-24T08:42:35.151Z,17.74
2018-02-24T08:43:35.164Z,17.74
2018-02-24T08:44:35.144Z,17.73
2018-02-24T08:45:35.160Z,17.77
2018-02-24T08:46:35.162Z,17.76
2018-02-24T08:47:35.159Z,17.77
2018-02-24T08:48:35.130Z,17.78
2018-02-24T08:49:35.139Z,17.8
2018-02-24T08:50:35.136Z,17.8
2018-02-24T08:51:35.173Z,17.78
2018-02-24T08:52:35.140Z,17.8
2018-02-24T08:53:35.141Z,17.84
2018-02-24T08:54:35.157Z,17.8
2018-02-24T08:55:35.133Z,17.82
2018-02-24T08:56:35.183Z,17.82
2018-02-24T08:57:35.152Z,17.82
2018-02-24T08:58:35.145Z,17.85
2018-02-24T08:59:35.161Z,17.82
2018-02-24T09:00:35.142Z,17.84
2018-02-24T09:01:35.139Z,17.84
2018-02-24T09:02:35.172Z,17.88
2018-02-24T09:03:35.190Z,17.89
2018-02-24T09:04:35.165Z,17.89
2018-02-24T09:05:35.126Z,17.88
2018-02-24T09:06:35.141Z,17.89
2018-02-24T09:07:35.413Z,17.94
2018-02-24T09:08:35.131Z,17.91
2018-02-24T09:09:35.139Z,17.91
2018-02-24T09:10:35.145Z,17.91
2018-02-24T09:11:35.157Z,17.89
2018-02-24T09:12:35.140Z,17.91
2018-02-24T09:13:35.385Z,17.89
2018-02-24T09:14:35.174Z,17.88
2018-02-24T09:15:35.146Z,17.89
2018-02-24T09:16:35.137Z,17.88
2018-02-24T09:17:35.165Z,17.89
2018-02-24T09:18:35.145Z,17.88
2018-02-24T09:19:35.137Z,17.87
2018-02-24T09:20:35.137Z,17.88
2018-02-24T09:21:35.120Z,17.87
2018-02-24T09:22:35.174Z,17.89
2018-02-24T09:23:35.158Z,17.87
2018-02-24T09:24:35.142Z,17.87
2018-02-24T09:25:35.134Z,17.88
2018-02-24T09:26:35.118Z,17.89
2018-02-24T09:27:35.167Z,17.88
2018-02-24T09:28:35.147Z,17.87
2018-02-24T09:29:35.137Z,17.88
2018-02-24T09:30:35.138Z,17.89
2018-02-24T09:31:35.128Z,17.87
2018-02-24T09:32:35.173Z,17.88
2018-02-24T09:33:35.144Z,17.87
2018-02-24T09:34:35.131Z,17.87
2018-02-24T09:35:35.134Z,17.88
2018-02-24T09:36:35.154Z,17.88
2018-02-24T09:37:35.385Z,17.87
2018-02-24T09:38:35.156Z,17.88
2018-02-24T09:39:35.118Z,17.87
2018-02-24T09:40:35.126Z,17.88
2018-02-24T09:41:35.115Z,17.88
2018-02-24T09:42:35.164Z,17.85
2018-02-24T09:43:35.176Z,17.88
2018-02-24T09:44:35.126Z,17.85
2018-02-24T09:45:35.121Z,17.88
2018-02-24T09:46:35.112Z,17.87
2018-02-24T09:47:35.158Z,17.89
2018-02-24T09:48:35.139Z,17.88
2018-02-24T09:49:35.128Z,17.88
2018-02-24T09:50:35.412Z,17.91
2018-02-24T09:51:35.139Z,17.91
2018-02-24T09:52:35.140Z,17.89
2018-02-24T09:53:35.086Z,17.87
2018-02-24T09:54:35.122Z,17.89
2018-02-24T09:55:35.161Z,17.89
2018-02-24T09:56:35.134Z,17.91
2018-02-24T09:57:35.121Z,17.91
2018-02-24T09:58:35.232Z,17.91
2018-02-24T09:59:35.192Z,17.91
2018-02-24T10:00:35.161Z,17.91
2018-02-24T10:01:35.132Z,17.91
2018-02-24T10:02:35.126Z,17.93
2018-02-24T10:03:35.135Z,17.93
2018-02-24T10:04:35.150Z,17.91
2018-02-24T10:05:35.140Z,17.93
2018-02-24T10:06:35.118Z,17.93
2018-02-24T10:07:35.117Z,17.93
2018-02-24T10:08:35.147Z,17.91
2018-02-24T10:09:35.127Z,17.93
2018-02-24T10:10:35.138Z,17.94
2018-02-24T10:11:35.112Z,17.95
2018-02-24T10:12:35.111Z,17.95
2018-02-24T10:13:35.105Z,17.94
2018-02-24T10:14:35.120Z,17.97
2018-02-24T10:15:35.162Z,17.94
2018-02-24T10:16:35.129Z,17.93
2018-02-24T10:17:35.112Z,17.94
2018-02-24T10:18:35.114Z,17.97
2018-02-24T10:19:35.127Z,17.97
2018-02-24T10:20:35.165Z,17.97
2018-02-24T10:21:35.129Z,17.95
2018-02-24T10:22:35.108Z,17.97
2018-02-24T10:23:35.138Z,17.97
2018-02-24T10:24:35.129Z,17.97
2018-02-24T10:25:35.158Z,17.98
2018-02-24T10:26:35.117Z,17.98
2018-02-24T10:27:35.112Z,17.98
2018-02-24T10:28:35.123Z,18
2018-02-24T10:29:35.113Z,17.95
2018-02-24T10:30:35.214Z,17.98
2018-02-24T10:31:35.133Z,17.97
2018-02-24T10:32:35.116Z,17.98
2018-02-24T10:33:35.103Z,18
2018-02-24T10:34:35.156Z,18.01
2018-02-24T10:35:35.140Z,18
2018-02-24T10:36:35.098Z,18.01
2018-02-24T10:37:35.161Z,18
2018-02-24T10:38:35.118Z,18
2018-02-24T10:39:35.122Z,18
2018-02-24T10:40:35.204Z,18.01
2018-02-24T10:41:35.114Z,18.01
2018-02-24T10:42:35.154Z,18.01
2018-02-24T10:43:35.112Z,18.02
2018-02-24T10:44:35.101Z,18
2018-02-24T10:45:35.242Z,18.02
2018-02-24T10:46:35.102Z,18.04
2018-02-24T10:47:35.112Z,18.04
2018-02-24T10:48:35.520Z,18.04
2018-02-24T10:49:35.123Z,18.01
2018-02-24T10:50:35.115Z,18.05
2018-02-24T10:51:35.107Z,18.04
2018-02-24T10:52:35.136Z,18.04
2018-02-24T10:53:35.157Z,18.04
2018-02-24T10:54:35.111Z,18.04
2018-02-24T10:55:35.107Z,18.04
2018-02-24T10:56:35.199Z,18.04
2018-02-24T10:57:35.136Z,18.05
2018-02-24T10:58:35.116Z,18.04
2018-02-24T10:59:35.109Z,18.04
2018-02-24T11:00:35.112Z,18.07
2018-02-24T11:01:35.105Z,18.07
2018-02-24T11:02:35.101Z,18.08
2018-02-24T11:03:35.135Z,18.07
2018-02-24T11:04:35.092Z,18.08
2018-02-24T11:05:35.219Z,18.08
2018-02-24T11:06:35.095Z,18.09
2018-02-24T11:07:35.104Z,18.09
2018-02-24T11:08:35.192Z,18.11
2018-02-24T11:09:35.121Z,18.09
2018-02-24T11:10:35.106Z,18.13
2018-02-24T11:11:35.102Z,18.13
2018-02-24T11:12:35.210Z,18.11
2018-02-24T11:13:35.155Z,18.07
2018-02-24T11:14:35.427Z,18.05
2018-02-24T11:15:35.092Z,18.07
2018-02-24T11:16:35.100Z,18.07
2018-02-24T11:17:35.092Z,18.07
2018-02-24T11:18:35.104Z,18.08
2018-02-24T11:19:35.153Z,18.09
2018-02-24T11:20:35.109Z,18.12
2018-02-24T11:21:35.128Z,18.11
2018-02-24T11:22:35.084Z,18.13
2018-02-24T11:23:35.098Z,18.16
2018-02-24T11:24:35.105Z,18.16
2018-02-24T11:25:35.122Z,18.19
2018-02-24T11:26:35.102Z,18.19
2018-02-24T11:27:35.117Z,18.22
2018-02-24T11:28:35.096Z,18.23
2018-02-24T11:29:35.095Z,18.26
2018-02-24T11:30:35.376Z,18.23
2018-02-24T11:31:35.085Z,18.28
2018-02-24T11:32:35.090Z,18.28
2018-02-24T11:33:35.091Z,18.29
2018-02-24T11:34:35.115Z,18.28
2018-02-24T11:35:35.131Z,18.32
2018-02-24T11:36:35.083Z,18.3
2018-02-24T11:37:35.090Z,18.35
2018-02-24T11:38:35.085Z,18.33
2018-02-24T11:39:35.121Z,18.33
2018-02-24T11:40:35.153Z,18.33
2018-02-24T11:41:35.100Z,18.35
2018-02-24T11:42:35.355Z,18.36
2018-02-24T11:43:35.549Z,18.36
2018-02-24T11:44:35.080Z,18.36
2018-02-24T11:45:35.083Z,18.37
2018-02-24T11:46:35.512Z,18.39
2018-02-24T11:47:35.107Z,18.4
2018-02-24T11:48:35.083Z,18.39
2018-02-24T11:49:35.079Z,18.37
2018-02-24T11:50:35.121Z,18.39
2018-02-24T11:51:35.133Z,18.39
2018-02-24T11:52:35.116Z,18.39
2018-02-24T11:53:35.084Z,18.37
2018-02-24T11:54:24.621Z,18.64
2018-02-24T11:55:33.327Z,18.71
2018-02-24T11:56:32.851Z,18.75
2018-02-24T11:57:32.858Z,18.8
2018-02-24T11:58:32.909Z,18.81
2018-02-24T11:59:32.869Z,18.83
2018-02-24T12:00:18.788Z,18.85
2018-02-24T12:01:18.022Z,18.84
2018-02-24T12:02:18.035Z,18.87
2018-02-24T12:03:18.031Z,18.87
2018-02-24T12:04:18.025Z,18.87
2018-02-24T12:05:18.035Z,18.9
2018-02-24T12:06:18.025Z,18.91
2018-02-24T12:07:18.025Z,18.91
2018-02-24T12:08:18.015Z,18.9
2018-02-24T12:09:18.017Z,18.92
2018-02-24T12:10:18.027Z,18.94
2018-02-24T12:11:18.069Z,18.95
2018-02-24T12:11:58.393Z,18.92
2018-02-24T12:12:57.660Z,18.95
2018-02-24T12:13:57.658Z,18.94
2018-02-24T12:14:57.707Z,18.94
2018-02-24T12:16:14.103Z,18.99
2018-02-24T12:16:56.242Z,18.98
2018-02-24T12:17:55.882Z,18.98
2018-02-24T12:18:55.859Z,18.99
2018-02-24T12:19:55.863Z,19.02
2018-02-24T12:20:55.857Z,19.02
2018-02-24T12:21:55.899Z,19.03
2018-02-24T12:22:55.875Z,19.03
2018-02-24T12:23:55.858Z,19.03
2018-02-24T12:24:55.857Z,19.02
2018-02-24T12:25:55.881Z,18.98
2018-02-24T12:26:55.882Z,18.99
2018-02-24T12:27:55.930Z,18.98
2018-02-24T12:28:55.868Z,18.98
2018-02-24T12:29:55.893Z,18.98
2018-02-24T12:30:55.870Z,18.97
2018-02-24T12:31:55.886Z,18.97
2018-02-24T12:32:55.902Z,18.97
2018-02-24T12:33:55.880Z,18.98
2018-02-24T12:34:55.857Z,18.98
2018-02-24T12:35:55.861Z,18.97
2018-02-24T12:36:55.849Z,18.98
2018-02-24T12:37:55.845Z,18.95
2018-02-24T12:38:55.864Z,18.97
2018-02-24T12:39:55.849Z,18.97
2018-02-24T12:40:55.875Z,18.97
2018-02-24T12:41:55.894Z,18.97
2018-02-24T12:42:55.940Z,18.94
2018-02-24T12:43:55.855Z,18.94
2018-02-24T12:44:55.843Z,18.95
2018-02-24T12:45:55.857Z,18.95
2018-02-24T12:46:55.853Z,18.94
2018-02-24T12:47:55.856Z,18.94
2018-02-24T12:48:55.873Z,18.94
2018-02-24T12:49:56.866Z,18.95
2018-02-24T12:50:56.228Z,18.94
2018-02-24T12:51:55.837Z,18.92
2018-02-24T12:52:55.847Z,18.92
2018-02-24T12:53:55.858Z,18.91
2018-02-24T12:54:55.837Z,18.91